Time;durP1;ratioP1;P1;durP2;ratioP2;P2;SDS_P1;SDS_P2;PMS_P1;PMS_P2;Temp;Humidity;BMP_temperature;BMP_pressure;BME280_temperature;BME280_humidity;BME280_pressure;Samples;Min_cycle;Max_cycle;Signal;HPM_P1;HPM_P2
2023/05/18 00:00:23;;;;;;;15.20;4.55;;;2.20;99.90;;;-148.53;100.00;63986.66;5051833;28;20392;-78
2023/05/18 00:02:49;;;;;;;13.02;4.05;;;2.30;99.90;;;-148.53;100.00;63986.66;5060494;28;20045;-78
2023/05/18 00:05:19;;;;;;;11.65;4.03;;;2.40;99.90;;;-148.53;100.00;63986.66;5065645;28;20043;-78
2023/05/18 00:07:46;;;;;;;8.25;3.72;;;2.40;99.90;;;-148.53;100.00;63986.66;5061673;28;20049;-77
2023/05/18 00:10:12;;;;;;;10.10;3.58;;;2.40;99.90;;;-148.53;100.00;63986.66;5066967;28;20104;-75
2023/05/18 00:12:38;;;;;;;11.65;3.80;;;2.30;99.90;;;-148.53;100.00;63986.66;5060638;28;20067;-76
2023/05/18 00:15:04;;;;;;;12.07;3.70;;;2.20;99.90;;;-148.53;100.00;63986.66;5072104;28;20095;-77
2023/05/18 00:17:30;;;;;;;9.18;3.72;;;2.10;99.90;;;-148.53;100.00;63986.66;5067682;28;20044;-76
2023/05/18 00:19:57;;;;;;;11.90;3.50;;;2.10;99.90;;;-148.53;100.00;63986.66;5081194;28;20068;-77
2023/05/18 00:22:25;;;;;;;9.85;3.92;;;2.10;99.90;;;-148.53;100.00;63986.66;5071615;28;20142;-77
2023/05/18 00:24:53;;;;;;;10.45;3.90;;;2.10;99.90;;;-148.53;100.00;63986.66;5075360;28;20056;-77
2023/05/18 00:27:19;;;;;;;13.60;4.53;;;2.10;99.90;;;-148.53;100.00;63986.66;5071958;28;20041;-77
2023/05/18 00:29:45;;;;;;;13.25;4.18;;;2.10;99.90;;;-148.53;100.00;63986.66;5070679;28;20068;-77
2023/05/18 00:32:11;;;;;;;11.75;4.35;;;2.10;99.90;;;-148.53;100.00;63986.66;5072437;28;20170;-78
2023/05/18 00:34:37;;;;;;;13.10;4.10;;;2.00;99.90;;;-148.53;100.00;63986.66;5091676;28;20036;-77
2023/05/18 00:37:03;;;;;;;12.30;4.18;;;1.90;99.90;;;-148.53;100.00;63986.66;5077996;28;20037;-78
2023/05/18 00:39:28;;;;;;;14.30;4.30;;;1.90;99.90;;;-148.53;100.00;63986.66;5067580;28;20044;-77
2023/05/18 00:41:54;;;;;;;12.30;5.15;;;1.90;99.90;;;-148.53;100.00;63986.66;5072877;28;20033;-77
2023/05/18 00:44:20;;;;;;;11.70;4.07;;;1.90;99.90;;;-148.53;100.00;63986.66;5069000;28;20036;-77
2023/05/18 00:46:46;;;;;;;9.63;4.40;;;1.90;99.90;;;-148.53;100.00;63986.66;5079967;28;20045;-77
2023/05/18 00:49:12;;;;;;;11.50;4.57;;;1.80;99.90;;;-148.53;100.00;63986.66;5061692;28;20037;-77
2023/05/18 00:51:39;;;;;;;13.40;4.50;;;1.70;99.90;;;-148.53;100.00;63986.66;5058197;28;20037;-77
2023/05/18 00:54:06;;;;;;;14.82;4.90;;;1.70;99.90;;;-148.53;100.00;63986.66;5062021;28;20492;-77
2023/05/18 00:56:35;;;;;;;20.02;4.90;;;1.80;99.90;;;-148.53;100.00;63986.66;5053052;28;20047;-77
2023/05/18 00:59:02;;;;;;;12.38;4.85;;;1.80;99.90;;;-148.53;100.00;63986.66;5069706;28;20504;-77
2023/05/18 01:01:42;;;;;;;9.38;4.22;;;1.80;99.90;;;-148.53;100.00;63986.66;5060325;28;20036;-77
2023/05/18 01:04:09;;;;;;;11.90;4.28;;;1.80;99.90;;;-148.53;100.00;63986.66;5068179;28;20377;-78
2023/05/18 01:06:34;;;;;;;13.23;4.57;;;1.70;99.90;;;-148.53;100.00;63986.66;5057824;28;20040;-77
2023/05/18 01:09:05;;;;;;;15.02;4.80;;;1.70;99.90;;;-148.53;100.00;63986.66;5054754;28;20477;-77
2023/05/18 01:12:10;;;;;;;11.15;4.50;;;1.70;99.90;;;-148.53;100.00;63986.66;5058443;28;20032;-77
2023/05/18 01:14:58;;;;;;;21.00;5.15;;;1.70;99.90;;;-148.53;100.00;63986.66;5063715;28;20071;-77
2023/05/18 01:17:59;;;;;;;15.55;5.15;;;1.60;99.90;;;-148.53;100.00;63986.66;5058836;28;20040;-77
2023/05/18 01:20:40;;;;;;;12.55;4.80;;;1.60;99.90;;;-148.53;100.00;63986.66;5053995;28;20045;-77
2023/05/18 01:23:43;;;;;;;11.10;4.43;;;1.40;99.90;;;-148.53;100.00;63986.66;5053027;28;20151;-77
2023/05/18 01:26:28;;;;;;;12.98;5.18;;;1.40;99.90;;;-148.53;100.00;63986.66;5061497;28;20072;-77
2023/05/18 01:28:58;;;;;;;12.13;4.65;;;1.50;99.90;;;-148.53;100.00;63986.66;5036628;28;20061;-77
2023/05/18 01:31:26;;;;;;;10.20;4.97;;;1.40;99.90;;;-148.53;100.00;63986.66;5064999;28;20036;-77
2023/05/18 01:33:52;;;;;;;11.18;5.25;;;1.40;99.90;;;-148.53;100.00;63986.66;5064079;28;20051;-77
2023/05/18 01:36:18;;;;;;;9.45;4.53;;;1.30;99.90;;;-148.53;100.00;63986.66;5038000;28;20024;-77
2023/05/18 01:38:44;;;;;;;11.88;5.05;;;1.20;99.90;;;-148.53;100.00;63986.66;5052689;28;20492;-77
2023/05/18 01:41:31;;;;;;;8.55;4.28;;;1.20;99.90;;;-148.53;100.00;63986.66;5053461;28;20061;-74
2023/05/18 01:44:08;;;;;;;12.25;4.50;;;1.10;99.90;;;-148.53;100.00;63986.66;5056424;28;20052;-76
2023/05/18 01:47:00;;;;;;;9.02;4.28;;;1.10;99.90;;;-148.53;100.00;63986.66;5053204;28;20120;-76
2023/05/18 01:50:05;;;;;;;11.15;4.78;;;1.00;99.90;;;-148.53;100.00;63986.66;5058747;28;20063;-76
2023/05/18 01:52:46;;;;;;;11.07;4.88;;;1.00;99.90;;;-148.53;100.00;63986.66;5062629;28;20029;-76
2023/05/18 01:55:16;;;;;;;18.75;5.47;;;1.10;99.90;;;-148.53;100.00;63986.66;5062125;28;20033;-76
2023/05/18 01:57:47;;;;;;;17.65;5.35;;;1.20;99.90;;;-148.53;100.00;63986.66;5053331;28;20045;-77
2023/05/18 02:00:16;;;;;;;13.63;5.32;;;1.30;99.90;;;-148.53;100.00;63986.66;5057245;28;20056;-76
2023/05/18 02:02:43;;;;;;;14.65;5.63;;;1.20;99.90;;;-148.53;100.00;63986.66;5055470;28;20090;-77
2023/05/18 02:05:12;;;;;;;15.75;5.38;;;1.30;99.90;;;-148.53;100.00;63986.66;5068351;28;20484;-76
2023/05/18 02:07:39;;;;;;;12.88;5.25;;;1.20;99.90;;;-148.53;100.00;63986.66;5051265;28;20037;-76
2023/05/18 02:10:06;;;;;;;17.83;5.68;;;1.20;99.90;;;-148.53;100.00;63986.66;5088924;28;20035;-76
2023/05/18 02:12:32;;;;;;;13.90;5.07;;;1.10;99.90;;;-148.53;100.00;63986.66;5064411;28;20056;-76
2023/05/18 02:14:59;;;;;;;12.07;5.18;;;1.00;99.90;;;-148.53;100.00;63986.66;5054982;28;20094;-76
2023/05/18 02:17:25;;;;;;;14.20;4.75;;;0.90;99.90;;;-148.53;100.00;63986.66;5067768;28;20429;-76
2023/05/18 02:19:51;;;;;;;15.88;5.40;;;0.80;99.90;;;-148.53;100.00;63986.66;5064822;28;20127;-76
2023/05/18 02:22:17;;;;;;;13.57;4.90;;;0.80;99.90;;;-148.53;100.00;63986.66;5055031;28;20056;-77
2023/05/18 02:24:45;;;;;;;14.90;5.43;;;0.80;99.90;;;-148.53;100.00;63986.66;5068674;28;20040;-77
2023/05/18 02:27:13;;;;;;;12.35;5.00;;;0.80;99.90;;;-148.53;100.00;63986.66;5054927;28;20032;-77
2023/05/18 02:29:39;;;;;;;13.73;5.30;;;0.80;99.90;;;-148.53;100.00;63986.66;5053158;28;20102;-77
2023/05/18 02:32:05;;;;;;;12.68;5.00;;;0.80;99.90;;;-148.53;100.00;63986.66;5041595;28;20041;-77
2023/05/18 02:34:31;;;;;;;16.05;5.43;;;0.90;99.90;;;-148.53;100.00;63986.66;5073035;28;20060;-76
2023/05/18 02:37:02;;;;;;;11.13;5.45;;;0.90;99.90;;;-148.53;100.00;63986.66;5056816;28;20148;-76
2023/05/18 02:39:29;;;;;;;12.65;5.22;;;1.00;99.90;;;-148.53;100.00;63986.66;5057746;28;20037;-77
2023/05/18 02:41:55;;;;;;;16.90;5.27;;;0.90;99.90;;;-148.53;100.00;63986.66;5052588;28;20399;-77
2023/05/18 02:44:21;;;;;;;11.20;4.80;;;0.90;99.90;;;-148.53;100.00;63986.66;5051331;28;20033;-77
2023/05/18 02:46:48;;;;;;;12.55;5.45;;;0.90;99.90;;;-148.53;100.00;63986.66;5058050;28;20071;-77
2023/05/18 02:49:13;;;;;;;12.18;5.68;;;0.90;99.90;;;-148.53;100.00;63986.66;5055569;28;20036;-77
2023/05/18 02:51:41;;;;;;;15.57;6.07;;;0.90;99.90;;;-148.53;100.00;63986.66;5066068;28;20421;-77
2023/05/18 02:54:07;;;;;;;11.25;5.70;;;0.90;99.90;;;-148.53;100.00;63986.66;5034456;28;20036;-77
2023/05/18 02:56:37;;;;;;;16.50;5.30;;;0.80;99.90;;;-148.53;100.00;63986.66;5065711;28;20036;-77
2023/05/18 02:59:10;;;;;;;13.10;5.55;;;0.80;99.90;;;-148.53;100.00;63986.66;5077091;28;20049;-77
2023/05/18 03:01:39;;;;;;;12.13;5.30;;;0.80;99.90;;;-148.53;100.00;63986.66;5051434;28;20498;-77
2023/05/18 03:04:05;;;;;;;15.88;5.80;;;0.70;99.90;;;-148.53;100.00;63986.66;5034365;28;20083;-77
2023/05/18 03:06:32;;;;;;;14.85;5.75;;;0.80;99.90;;;-148.53;100.00;63986.66;5053581;28;20115;-77
2023/05/18 03:08:58;;;;;;;14.07;5.75;;;0.80;99.90;;;-148.53;100.00;63986.66;5049959;28;20044;-77
2023/05/18 03:11:31;;;;;;;13.15;5.93;;;0.80;99.90;;;-148.53;100.00;63986.66;5045557;28;20385;-77
2023/05/18 03:13:57;;;;;;;14.75;5.18;;;0.80;99.90;;;-148.53;100.00;63986.66;5056492;28;20036;-76
2023/05/18 03:16:27;;;;;;;13.85;5.68;;;0.80;99.90;;;-148.53;100.00;63986.66;5053366;28;20021;-76
2023/05/18 03:19:00;;;;;;;21.05;5.72;;;0.70;99.90;;;-148.53;100.00;63986.66;5066883;28;20040;-77
2023/05/18 03:21:35;;;;;;;13.35;5.57;;;0.60;99.90;;;-148.53;100.00;63986.66;5050528;28;20033;-77
2023/05/18 03:24:02;;;;;;;17.02;5.53;;;0.60;99.90;;;-148.53;100.00;63986.66;5054075;28;20029;-78
2023/05/18 03:26:31;;;;;;;19.80;6.50;;;0.60;99.90;;;-148.53;100.00;63986.66;5065255;28;20079;-77
2023/05/18 03:28:58;;;;;;;16.00;5.90;;;0.60;99.90;;;-148.53;100.00;63986.66;5052517;28;20457;-76
2023/05/18 03:31:24;;;;;;;12.85;6.07;;;0.60;99.90;;;-148.53;100.00;63986.66;5054942;28;20051;-77
2023/05/18 03:33:51;;;;;;;11.60;5.80;;;0.60;99.90;;;-148.53;100.00;63986.66;5051858;28;20124;-78
2023/05/18 03:36:17;;;;;;;24.65;8.07;;;0.60;99.90;;;-148.53;100.00;63986.66;5050005;28;20454;-78
2023/05/18 03:38:46;;;;;;;17.38;6.45;;;0.50;99.90;;;-148.53;100.00;63986.66;5064856;28;20032;-77
2023/05/18 03:41:13;;;;;;;16.00;6.15;;;0.70;99.90;;;-148.53;100.00;63986.66;5054504;28;20128;-77
2023/05/18 03:43:38;;;;;;;16.88;6.05;;;0.70;99.90;;;-148.53;100.00;63986.66;5069586;28;20548;-77
2023/05/18 03:46:06;;;;;;;18.73;6.93;;;0.70;99.90;;;-148.53;100.00;63986.66;5054220;28;20400;-77
2023/05/18 03:48:31;;;;;;;12.43;5.50;;;0.80;99.90;;;-148.53;100.00;63986.66;5055292;28;20041;-77
2023/05/18 03:50:58;;;;;;;12.93;6.25;;;0.70;99.90;;;-148.53;100.00;63986.66;5050531;28;20475;-77
2023/05/18 03:53:28;;;;;;;16.75;6.13;;;0.70;99.90;;;-148.53;100.00;63986.66;5056950;28;20032;-76
2023/05/18 03:55:54;;;;;;;13.63;5.90;;;0.80;99.90;;;-148.53;100.00;63986.66;5053441;28;20024;-76
2023/05/18 03:58:19;;;;;;;13.45;5.80;;;0.80;99.90;;;-148.53;100.00;63986.66;5067149;28;20029;-77
2023/05/18 04:00:46;;;;;;;13.10;6.10;;;0.80;99.90;;;-148.53;100.00;63986.66;5069325;28;20146;-78
2023/05/18 04:03:13;;;;;;;13.20;5.63;;;0.80;99.90;;;-148.53;100.00;63986.66;5037436;28;20021;-78
2023/05/18 04:05:44;;;;;;;17.10;6.55;;;0.80;99.90;;;-148.53;100.00;63986.66;5053563;28;20516;-77
2023/05/18 04:08:13;;;;;;;14.95;6.72;;;0.80;99.90;;;-148.53;100.00;63986.66;5054828;28;20032;-78
2023/05/18 04:10:42;;;;;;;19.60;6.82;;;0.80;99.90;;;-148.53;100.00;63986.66;5053118;28;20443;-78
2023/05/18 04:13:08;;;;;;;16.30;6.40;;;0.90;99.90;;;-148.53;100.00;63986.66;5052986;28;20037;-78
2023/05/18 04:15:35;;;;;;;14.00;6.18;;;0.90;99.90;;;-148.53;100.00;63986.66;5053980;28;20098;-78
2023/05/18 04:18:01;;;;;;;17.60;7.47;;;1.00;99.90;;;-148.53;100.00;63986.66;5068769;28;20037;-77
2023/05/18 04:20:28;;;;;;;15.07;6.47;;;1.00;99.90;;;-148.53;100.00;63986.66;5052500;28;20040;-76
2023/05/18 04:22:56;;;;;;;15.33;6.33;;;1.10;99.90;;;-148.53;100.00;63986.66;5052657;28;20029;-77
2023/05/18 04:25:28;;;;;;;15.93;6.38;;;1.20;99.90;;;-148.53;100.00;63986.66;5057395;28;20465;-77
2023/05/18 04:27:55;;;;;;;18.58;6.05;;;1.30;99.90;;;-148.53;100.00;63986.66;5052956;28;20036;-77
2023/05/18 04:30:22;;;;;;;18.98;6.80;;;1.40;99.90;;;-148.53;100.00;63986.66;5052614;28;20397;-76
2023/05/18 04:32:50;;;;;;;23.00;7.57;;;1.40;99.90;;;-148.53;100.00;63986.66;5052754;28;20036;-77
2023/05/18 04:35:17;;;;;;;15.77;6.40;;;1.50;99.90;;;-148.53;100.00;63986.66;5069214;28;20115;-77
2023/05/18 04:37:44;;;;;;;17.75;7.22;;;1.60;99.90;;;-148.53;100.00;63986.66;5051605;28;20183;-77
2023/05/18 04:40:16;;;;;;;18.35;7.03;;;1.70;99.90;;;-148.53;100.00;63986.66;5055045;28;20412;-77
2023/05/18 04:42:46;;;;;;;21.27;8.07;;;1.80;99.90;;;-148.53;100.00;63986.66;5060622;28;20357;-76
2023/05/18 04:45:21;;;;;;;17.20;7.80;;;1.90;99.90;;;-148.53;100.00;63986.66;5052311;28;20155;-77
2023/05/18 04:47:52;;;;;;;24.42;8.10;;;2.00;99.90;;;-148.53;100.00;63986.66;5058446;28;20036;-78
2023/05/18 04:50:19;;;;;;;20.25;8.20;;;2.20;99.90;;;-148.53;100.00;63986.66;5053555;28;20029;-77
2023/05/18 04:52:47;;;;;;;19.10;8.43;;;2.30;99.90;;;-148.53;100.00;63986.66;5064652;28;20043;-78
2023/05/18 04:55:26;;;;;;;15.93;7.93;;;2.50;99.90;;;-148.53;100.00;63986.66;5059236;28;20082;-78
2023/05/18 04:57:56;;;;;;;18.95;8.13;;;2.60;99.90;;;-148.53;100.00;63986.66;5057423;28;20021;-78
2023/05/18 05:00:28;;;;;;;19.95;8.85;;;2.80;99.90;;;-148.53;100.00;63986.66;5056514;28;20036;-78
2023/05/18 05:02:55;;;;;;;17.33;8.63;;;2.90;99.90;;;-148.53;100.00;63986.66;5064071;28;20025;-78
2023/05/18 05:05:22;;;;;;;24.07;9.60;;;3.00;99.90;;;-148.53;100.00;63986.66;5079978;28;20040;-77
2023/05/18 05:07:50;;;;;;;;;;;3.20;99.90;;;-148.53;100.00;63986.66;5058427;28;20033;-78
2023/05/18 05:10:17;;;;;;;22.33;9.73;;;3.30;99.90;;;-148.53;100.00;63986.66;5062845;28;19928;-77
2023/05/18 05:12:44;;;;;;;21.17;9.18;;;3.40;99.90;;;-148.53;100.00;63986.66;5061482;28;20077;-78
2023/05/18 05:15:10;;;;;;;26.00;9.52;;;3.60;99.90;;;-148.53;100.00;63986.66;5063903;28;20099;-77
2023/05/18 05:17:37;;;;;;;22.98;9.88;;;3.70;99.90;;;-148.53;100.00;63986.66;5044116;28;20564;-77
2023/05/18 05:20:07;;;;;;;23.38;10.23;;;3.80;99.90;;;-148.53;100.00;63986.66;5061491;28;20075;-77
2023/05/18 05:22:33;;;;;;;25.85;9.70;;;4.00;99.90;;;-148.53;100.00;63986.66;5060344;28;20033;-76
2023/05/18 05:25:01;;;;;;;25.63;9.77;;;4.10;99.90;;;-148.53;100.00;63986.66;5062365;28;20032;-76
2023/05/18 05:27:26;;;;;;;21.95;9.48;;;4.10;99.90;;;-148.53;100.00;63986.66;5046628;28;20689;-77
2023/05/18 05:29:52;;;;;;;25.83;9.60;;;4.20;99.90;;;-148.53;100.00;63986.66;5051919;28;20037;-77
2023/05/18 05:32:18;;;;;;;21.98;8.85;;;4.30;99.90;;;-148.53;100.00;63986.66;5056416;28;20044;-76
2023/05/18 05:34:46;;;;;;;21.58;8.68;;;4.40;99.90;;;-148.53;100.00;63986.66;5064323;28;20025;-78
2023/05/18 05:37:13;;;;;;;18.23;8.35;;;4.50;99.90;;;-148.53;100.00;63986.66;5052718;28;20119;-79
2023/05/18 05:39:39;;;;;;;27.58;9.25;;;4.70;99.90;;;-148.53;100.00;63986.66;5059453;28;20045;-77
2023/05/18 05:42:07;;;;;;;24.00;7.93;;;4.80;99.90;;;-148.53;100.00;63986.66;5051704;28;20052;-76
2023/05/18 05:44:33;;;;;;;17.38;7.90;;;5.00;99.90;;;-148.53;100.00;63986.66;5073942;28;20124;-77
2023/05/18 05:46:59;;;;;;;15.10;6.63;;;5.10;99.90;;;-148.53;100.00;63986.66;5052252;28;20063;-79
2023/05/18 05:49:25;;;;;;;14.82;6.28;;;5.20;99.90;;;-148.53;100.00;63986.66;5053364;28;20033;-80
2023/05/18 05:51:51;;;;;;;14.82;6.38;;;5.30;99.90;;;-148.53;100.00;63986.66;5054301;28;20032;-79
2023/05/18 05:54:18;;;;;;;17.40;6.32;;;5.40;99.90;;;-148.53;100.00;63986.66;5058312;28;20476;-78
2023/05/18 05:56:43;;;;;;;11.75;5.90;;;5.60;99.90;;;-148.53;100.00;63986.66;5056815;28;20036;-81
2023/05/18 05:59:10;;;;;;;17.23;5.40;;;5.80;99.90;;;-148.53;100.00;63986.66;5052055;28;20032;-80
2023/05/18 06:01:36;;;;;;;13.20;5.15;;;6.00;99.90;;;-148.53;100.00;63986.66;5041831;28;20055;-80
2023/05/18 06:04:04;;;;;;;11.48;5.28;;;6.20;99.90;;;-148.53;100.00;63986.66;5066836;28;20431;-80
2023/05/18 06:06:30;;;;;;;14.07;5.88;;;6.50;99.90;;;-148.53;100.00;63986.66;5073397;28;20036;-88
2023/05/18 06:08:56;;;;;;;17.73;5.45;;;6.70;99.90;;;-148.53;100.00;63986.66;5035497;28;20438;-80
2023/05/18 06:11:22;;;;;;;14.02;5.70;;;6.90;99.90;;;-148.53;100.00;63986.66;5051532;28;20131;-81
2023/05/18 06:13:51;;;;;;;12.20;4.72;;;7.10;99.90;;;-148.53;100.00;63986.66;5061646;28;20431;-80
2023/05/18 06:16:17;;;;;;;15.13;5.15;;;7.30;99.90;;;-148.53;100.00;63986.66;5049297;28;20076;-80
2023/05/18 06:18:43;;;;;;;11.77;4.43;;;7.50;99.90;;;-148.53;100.00;63986.66;5051131;28;20036;-80
2023/05/18 06:21:09;;;;;;;12.05;4.30;;;7.60;99.90;;;-148.53;100.00;63986.66;5047440;28;20044;-80
2023/05/18 06:23:35;;;;;;;8.32;3.92;;;7.70;99.90;;;-148.53;100.00;63986.66;5056681;28;20583;-80
2023/05/18 06:26:00;;;;;;;11.73;3.72;;;7.90;99.90;;;-148.53;100.00;63986.66;5058723;28;20385;-81
2023/05/18 06:28:45;;;;;;;14.25;4.22;;;8.00;99.90;;;-148.53;100.00;63986.66;5055242;28;20134;-80
2023/05/18 06:31:24;;;;;;;9.10;3.53;;;8.10;99.90;;;-148.53;100.00;63986.66;5055701;28;20025;-81
2023/05/18 06:33:58;;;;;;;12.98;3.67;;;8.20;99.90;;;-148.53;100.00;63986.66;5059824;28;20033;-79
2023/05/18 06:36:24;;;;;;;10.38;3.95;;;8.40;99.90;;;-148.53;100.00;63986.66;5055519;28;20036;-80
2023/05/18 06:38:50;;;;;;;8.23;3.90;;;8.60;99.90;;;-148.53;100.00;63986.66;5056287;28;20041;-80
2023/05/18 06:41:15;;;;;;;9.23;3.38;;;8.80;99.90;;;-148.53;100.00;63986.66;5049931;28;20039;-78
2023/05/18 06:43:41;;;;;;;8.48;3.22;;;8.90;99.90;;;-148.53;100.00;63986.66;5054896;28;20041;-77
2023/05/18 06:46:28;;;;;;;12.30;3.67;;;9.10;99.90;;;-148.53;100.00;63986.66;5069658;28;20513;-80
2023/05/18 06:49:00;;;;;;;14.13;3.20;;;9.30;99.90;;;-148.53;100.00;63986.66;5061050;28;20036;-76
2023/05/18 06:51:26;;;;;;;8.23;3.47;;;9.40;99.90;;;-148.53;100.00;63986.66;5055129;28;20392;-77
2023/05/18 06:53:54;;;;;;;10.40;3.28;;;9.50;99.90;;;-148.53;100.00;63986.66;5066750;28;20075;-78
2023/05/18 06:56:21;;;;;;;10.10;3.30;;;9.50;99.90;;;-148.53;100.00;63986.66;5060944;28;20049;-81
2023/05/18 06:58:46;;;;;;;11.43;3.25;;;9.70;99.90;;;-148.53;100.00;63986.66;5064797;28;20128;-77
2023/05/18 07:01:13;;;;;;;8.80;3.40;;;9.80;99.90;;;-148.53;100.00;63986.66;5065741;28;20295;-76
2023/05/18 07:03:39;;;;;;;9.10;3.45;;;9.80;99.90;;;-148.53;100.00;63986.66;5045321;28;20657;-76
2023/05/18 07:06:05;;;;;;;10.93;3.75;;;9.90;99.90;;;-148.53;100.00;63986.66;5065002;28;20131;-80
2023/05/18 07:08:32;;;;;;;7.80;3.67;;;9.70;99.90;;;-148.53;100.00;63986.66;5063525;28;20036;-81
2023/05/18 07:10:58;;;;;;;9.23;3.53;;;9.80;99.90;;;-148.53;100.00;63986.66;5063479;28;20044;-78
2023/05/18 07:13:24;;;;;;;10.52;3.58;;;10.00;99.90;;;-148.53;100.00;63986.66;5060382;28;20037;-79
2023/05/18 07:15:50;;;;;;;9.02;3.45;;;10.00;99.90;;;-148.53;100.00;63986.66;5067709;28;20094;-79
2023/05/18 07:18:16;;;;;;;9.45;3.70;;;10.00;99.90;;;-148.53;100.00;63986.66;5059902;28;20042;-78
2023/05/18 07:20:42;;;;;;;8.60;3.80;;;10.00;99.90;;;-148.53;100.00;63986.66;5063032;28;20132;-78
2023/05/18 07:23:08;;;;;;;8.68;3.80;;;10.20;99.90;;;-148.53;100.00;63986.66;5062908;28;20041;-77
2023/05/18 07:25:34;;;;;;;10.82;3.35;;;10.20;99.90;;;-148.53;100.00;63986.66;5074148;28;20028;-80
2023/05/18 07:28:00;;;;;;;9.15;3.65;;;10.30;99.90;;;-148.53;100.00;63986.66;5068500;28;20033;-89
2023/05/18 07:30:26;;;;;;;10.63;3.45;;;10.20;99.90;;;-148.53;100.00;63986.66;5071295;28;20054;-79
2023/05/18 07:32:55;;;;;;;9.95;3.88;;;10.40;99.90;;;-148.53;100.00;63986.66;5069523;28;20044;-84
2023/05/18 07:35:25;;;;;;;10.60;3.47;;;10.60;99.90;;;-148.53;100.00;63986.66;5049863;28;20045;-84
2023/05/18 07:37:52;;;;;;;8.80;3.60;;;10.90;99.90;;;-148.53;100.00;63986.66;5060997;28;20123;-84
2023/05/18 07:40:19;;;;;;;8.75;3.35;;;10.90;99.90;;;-148.53;100.00;63986.66;5069084;28;20114;-83
2023/05/18 07:42:45;;;;;;;11.55;3.90;;;10.80;99.90;;;-148.53;100.00;63986.66;5061644;28;20044;-84
2023/05/18 07:45:12;;;;;;;7.88;3.67;;;10.70;99.90;;;-148.53;100.00;63986.66;5074047;28;20090;-83
2023/05/18 07:47:38;;;;;;;8.55;3.35;;;11.00;99.90;;;-148.53;100.00;63986.66;5055855;28;20040;-81
2023/05/18 07:50:05;;;;;;;10.45;3.65;;;11.00;99.90;;;-148.53;100.00;63986.66;5057007;28;20068;-81
2023/05/18 07:52:31;;;;;;;11.60;3.60;;;11.30;99.20;;;-148.53;100.00;63986.66;5061854;28;20037;-79
2023/05/18 07:58:10;;;;;;;12.75;3.78;;;11.40;99.70;;;-148.53;100.00;63986.66;5054265;28;20572;-80
2023/05/18 08:00:36;;;;;;;11.70;3.85;;;11.80;99.60;;;-148.53;100.00;63986.66;5061305;28;20055;-79
2023/05/18 08:03:02;;;;;;;8.85;3.47;;;12.00;99.00;;;-148.53;100.00;63986.66;5054709;28;20037;-79
2023/05/18 08:05:28;;;;;;;12.15;4.05;;;12.10;98.50;;;-148.53;100.00;63986.66;5056119;28;20043;-79
2023/05/18 08:07:53;;;;;;;12.18;4.18;;;12.30;97.80;;;-148.53;100.00;63986.66;5055542;28;20068;-80
2023/05/18 08:10:19;;;;;;;11.15;4.00;;;12.50;99.90;;;-148.53;100.00;63986.66;5060526;28;20365;-79
2023/05/18 08:12:51;;;;;;;10.48;4.22;;;12.70;98.00;;;-148.53;100.00;63986.66;5057126;28;20055;-81
2023/05/18 08:15:20;;;;;;;11.18;3.72;;;12.70;97.70;;;-148.53;100.00;63986.66;5058408;28;20032;-80
2023/05/18 08:17:46;;;;;;;11.38;3.92;;;12.80;95.20;;;-148.53;100.00;63986.66;5059611;28;20068;-80
2023/05/18 08:20:12;;;;;;;11.68;3.47;;;12.80;95.50;;;-148.53;100.00;63986.66;5062002;28;20052;-79
2023/05/18 08:22:39;;;;;;;10.45;3.40;;;12.80;96.90;;;-148.53;100.00;63986.66;5055376;28;20033;-82
2023/05/18 08:25:05;;;;;;;9.80;3.35;;;12.90;96.30;;;-148.53;100.00;63986.66;5054835;28;20486;-79
2023/05/18 08:27:31;;;;;;;10.10;4.00;;;12.90;97.00;;;-148.53;100.00;63986.66;5055877;28;20032;-81
2023/05/18 08:29:57;;;;;;;9.13;3.30;;;13.10;95.70;;;-148.53;100.00;63986.66;5063289;28;20053;-80
2023/05/18 08:32:23;;;;;;;8.05;3.45;;;13.30;96.50;;;-148.53;100.00;63986.66;5063265;28;20033;-79
2023/05/18 08:34:50;;;;;;;9.48;4.10;;;13.20;95.30;;;-148.53;100.00;63986.66;5059283;28;20045;-80
2023/05/18 08:37:16;;;;;;;10.45;3.90;;;12.90;95.00;;;-148.53;100.00;63986.66;5065770;28;20440;-82
2023/05/18 08:39:44;;;;;;;11.23;3.40;;;12.80;93.50;;;-148.53;100.00;63986.66;5068021;28;20457;-80
2023/05/18 08:42:33;;;;;;;7.75;3.90;;;12.60;93.60;;;-148.53;100.00;63986.66;5074679;28;20072;-80
2023/05/18 08:45:31;;;;;;;8.60;4.05;;;12.50;94.70;;;-148.53;100.00;63986.66;5066126;28;20048;-81
2023/05/18 08:48:01;;;;;;;8.40;3.88;;;11.80;94.30;;;-148.53;100.00;63986.66;5062818;28;20546;-80
2023/05/18 08:50:31;;;;;;;11.07;4.05;;;11.30;95.90;;;-148.53;100.00;63986.66;5064495;28;20044;-79
2023/05/18 08:53:04;;;;;;;11.70;3.58;;;11.40;96.40;;;-148.53;100.00;63986.66;5060042;28;20068;-79
2023/05/18 08:55:35;;;;;;;9.60;3.70;;;11.80;96.30;;;-148.53;100.00;63986.66;5066407;28;20033;-79
2023/05/18 08:58:08;;;;;;;9.18;4.28;;;12.60;94.30;;;-148.53;100.00;63986.66;5070871;28;20051;-81
2023/05/18 09:00:34;;;;;;;8.75;3.60;;;13.00;93.50;;;-148.53;100.00;63986.66;5085921;28;20036;-79
2023/05/18 09:03:04;;;;;;;12.75;3.92;;;13.10;92.70;;;-148.53;100.00;63986.66;5039358;28;20072;-80
2023/05/18 09:05:30;;;;;;;9.90;3.45;;;13.50;93.10;;;-148.53;100.00;63986.66;5062876;28;20036;-81
2023/05/18 09:07:56;;;;;;;12.57;3.50;;;14.00;93.30;;;-148.53;100.00;63986.66;5060612;28;20098;-81
2023/05/18 09:10:24;;;;;;;9.43;3.70;;;14.40;89.80;;;-148.53;100.00;63986.66;5060707;28;20032;-79
2023/05/18 09:12:51;;;;;;;12.65;3.75;;;14.30;91.60;;;-148.53;100.00;63986.66;5054591;28;20083;-79
2023/05/18 09:15:17;;;;;;;10.18;3.30;;;14.40;89.00;;;-148.53;100.00;63986.66;5055026;28;20393;-80
2023/05/18 09:17:43;;;;;;;11.95;3.65;;;14.70;90.40;;;-148.53;100.00;63986.66;5066394;28;20041;-80
2023/05/18 09:20:09;;;;;;;8.63;3.22;;;15.50;88.30;;;-148.53;100.00;63986.66;5053324;28;20040;-80
2023/05/18 09:22:35;;;;;;;9.57;3.20;;;15.90;84.30;;;-148.53;100.00;63986.66;5052943;28;20056;-81
2023/05/18 09:25:08;;;;;;;11.70;3.25;;;16.30;80.70;;;-148.53;100.00;63986.66;5057859;28;20032;-79
2023/05/18 09:27:33;;;;;;;11.93;3.38;;;16.30;85.30;;;-148.53;100.00;63986.66;5052702;28;20045;-80
2023/05/18 09:29:59;;;;;;;7.45;3.03;;;16.70;82.80;;;-148.53;100.00;63986.66;5055614;28;20052;-79
2023/05/18 09:32:26;;;;;;;11.63;3.47;;;16.90;77.00;;;-148.53;100.00;63986.66;5057840;28;20040;-80
2023/05/18 09:34:52;;;;;;;7.47;3.15;;;16.60;74.70;;;-148.53;100.00;63986.66;5058653;28;20059;-79
2023/05/18 09:37:21;;;;;;;8.07;2.95;;;16.80;78.40;;;-148.53;100.00;63986.66;5052223;28;20110;-79
2023/05/18 09:40:07;;;;;;;7.90;3.30;;;16.80;82.60;;;-148.53;100.00;63986.66;5058892;28;20041;-79
2023/05/18 09:42:41;;;;;;;8.38;3.22;;;16.90;77.60;;;-148.53;100.00;63986.66;5052382;28;20499;-76
2023/05/18 09:45:22;;;;;;;10.75;3.55;;;17.10;78.20;;;-148.53;100.00;63986.66;5052415;28;20380;-78
2023/05/18 09:47:52;;;;;;;9.80;3.30;;;17.60;77.40;;;-148.53;100.00;63986.66;5061276;28;20033;-77
2023/05/18 09:50:22;;;;;;;10.00;3.30;;;17.90;74.90;;;-148.53;100.00;63986.66;5073243;28;20363;-76
2023/05/18 09:52:49;;;;;;;7.38;3.08;;;17.90;75.70;;;-148.53;100.00;63986.66;5052107;28;20159;-77
2023/05/18 09:55:19;;;;;;;10.45;3.83;;;18.30;73.40;;;-148.53;100.00;63986.66;5052302;28;20067;-78
2023/05/18 09:57:48;;;;;;;15.80;3.53;;;18.50;72.40;;;-148.53;100.00;63986.66;5051054;28;20040;-79
2023/05/18 10:00:15;;;;;;;9.43;2.90;;;18.20;71.90;;;-148.53;100.00;63986.66;5057222;28;20047;-77
2023/05/18 10:02:47;;;;;;;9.88;3.38;;;18.10;72.00;;;-148.53;100.00;63986.66;5062608;28;20045;-78
2023/05/18 10:05:30;;;;;;;11.38;3.08;;;18.20;69.60;;;-148.53;100.00;63986.66;5066760;28;20488;-78
2023/05/18 10:07:56;;;;;;;12.70;3.33;;;17.60;76.00;;;-148.53;100.00;63986.66;5062431;28;20041;-79
2023/05/18 10:10:27;;;;;;;12.02;3.17;;;17.50;74.20;;;-148.53;100.00;63986.66;5051811;28;20443;-78